Time;durP1;ratioP1;P1;durP2;ratioP2;P2;SDS_P1;SDS_P2;PMS_P1;PMS_P2;Temp;Humidity;BMP_temperature;BMP_pressure;BME280_temperature;BME280_humidity;BME280_pressure;Samples;Min_cycle;Max_cycle;Signal;HPM_P1;HPM_P2
2022/03/21 00:01:41;;;;;;;50.05;12.50;;;;;;;4.57;82.16;99424.03;5001781;28;20045;-55
2022/03/21 00:04:07;;;;;;;42.17;12.25;;;;;;;4.52;71.20;99438.63;5003548;28;20223;-56
2022/03/21 00:06:32;;;;;;;42.67;12.15;;;;;;;4.44;71.08;99434.28;5002556;28;20033;-55
2022/03/21 00:08:58;;;;;;;45.50;12.27;;;;;;;4.35;67.88;99431.63;4998424;28;20035;-54
2022/03/21 00:11:24;;;;;;;38.80;11.95;;;;;;;4.17;67.18;99428.91;4992305;28;20033;-60
2022/03/21 00:13:53;;;;;;;44.67;12.35;;;;;;;4.20;66.64;99428.94;5001337;28;20032;-55
2022/03/21 00:16:19;;;;;;;40.00;11.73;;;;;;;4.07;68.75;99424.53;5001187;28;20428;-54
2022/03/21 00:18:45;;;;;;;44.03;11.93;;;;;;;4.03;69.16;99427.09;5002739;28;20029;-54
2022/03/21 00:21:11;;;;;;;42.13;12.13;;;;;;;4.16;66.79;99427.19;5003725;28;20053;-54
2022/03/21 00:23:36;;;;;;;42.85;12.43;;;;;;;4.11;65.94;99434.03;5003452;28;20037;-55
2022/03/21 00:26:02;;;;;;;48.85;12.80;;;;;;;4.16;65.83;99422.03;5005712;28;20033;-54
2022/03/21 00:28:28;;;;;;;38.95;12.15;;;;;;;4.02;67.66;99420.19;5004906;28;20038;-57
2022/03/21 00:30:53;;;;;;;53.75;13.75;;;;;;;3.90;66.90;99429.53;4999232;28;20048;-54
2022/03/21 00:33:19;;;;;;;43.47;12.27;;;;;;;3.78;66.86;99425.16;5001356;28;20033;-57
2022/03/21 00:35:48;;;;;;;59.33;13.27;;;;;;;3.90;66.53;99422.69;4998778;28;20088;-56
2022/03/21 00:38:14;;;;;;;42.67;12.23;;;;;;;3.65;66.72;99425.03;4998200;28;20742;-56
2022/03/21 00:40:40;;;;;;;44.50;12.30;;;;;;;3.64;69.45;99422.44;5000454;28;20041;-56
2022/03/21 00:43:07;;;;;;;36.55;11.95;;;;;;;3.75;67.44;99414.78;5005404;28;20029;-56
2022/03/21 00:45:32;;;;;;;45.92;12.02;;;;;;;3.73;67.06;99422.53;4999525;28;20038;-57
2022/03/21 00:47:57;;;;;;;43.83;12.10;;;;;;;3.81;66.88;99425.19;5004030;28;20079;-54
2022/03/21 00:50:25;;;;;;;46.10;12.07;;;;;;;3.75;66.36;99425.09;5002760;28;20744;-55
2022/03/21 00:52:55;;;;;;;50.55;12.32;;;;;;;3.94;66.75;99428.75;5001659;28;20112;-55
2022/03/21 00:55:22;;;;;;;42.85;11.30;;;;;;;3.71;74.14;99423.34;5001918;28;20025;-56
2022/03/21 00:57:48;;;;;;;43.17;12.57;;;;;;;3.77;69.57;99428.59;5001839;28;20053;-55
2022/03/21 01:00:17;;;;;;;42.70;11.55;;;;;;;3.86;67.82;99428.69;4999141;28;20064;-54
2022/03/21 01:02:43;;;;;;;80.10;15.02;;;;;;;3.89;67.17;99431.25;4999990;28;20121;-56
2022/03/21 01:05:10;;;;;;;44.85;11.45;;;;;;;3.81;67.16;99430.34;5000731;28;20034;-55
2022/03/21 01:07:37;;;;;;;44.85;12.52;;;;;;;3.45;67.25;99432.56;5003670;28;20044;-56
2022/03/21 01:10:04;;;;;;;38.95;12.07;;;;;;;3.53;67.07;99435.25;5000042;28;20036;-56
2022/03/21 01:12:30;;;;;;;39.72;12.25;;;;;;;3.58;67.13;99438.72;5001976;28;20033;-56
2022/03/21 01:14:56;;;;;;;51.05;12.77;;;;;;;3.52;67.02;99437.81;5003005;28;20651;-56
2022/03/21 01:17:21;;;;;;;43.42;11.68;;;;;;;3.60;72.42;99436.16;4999083;28;20124;-57
2022/03/21 01:19:46;;;;;;;37.40;10.25;;;;;;;3.56;71.36;99435.25;5002755;28;20049;-55
2022/03/21 01:22:13;;;;;;;49.10;12.60;;;;;;;3.53;68.20;99430.09;5003280;28;20077;-57
2022/03/21 01:24:38;;;;;;;43.72;11.23;;;;;;;3.26;70.92;99428.91;5001385;28;20952;-55
2022/03/21 01:27:08;;;;;;;40.08;11.82;;;;;;;3.45;67.54;99434.28;5004397;28;20042;-55
2022/03/21 01:29:34;;;;;;;36.53;10.15;;;;;;;3.42;72.74;99432.56;4999517;28;20044;-54
2022/03/21 01:31:59;;;;;;;45.17;12.15;;;;;;;3.56;75.43;99442.13;5002420;28;20151;-54
2022/03/21 01:34:25;;;;;;;45.00;10.93;;;;;;;3.61;83.20;99443.91;5001348;28;20033;-56
2022/03/21 01:36:51;;;;;;;43.88;12.00;;;;;;;3.83;100.00;99449.28;4999792;28;20058;-55
2022/03/21 01:39:16;;;;;;;37.55;10.85;;;;;;;3.57;100.00;99457.63;4999246;28;20057;-55
2022/03/21 01:41:42;;;;;;;41.85;11.48;;;;;;;3.59;100.00;99458.53;4997462;28;20046;-54
2022/03/21 01:44:09;;;;;;;44.50;12.32;;;;;;;3.59;89.09;99460.25;4999714;28;20132;-55
2022/03/21 01:46:36;;;;;;;46.17;11.57;;;;;;;3.39;85.97;99457.44;5001102;28;20073;-55
2022/03/21 01:49:04;;;;;;;41.25;11.00;;;;;;;3.23;89.03;99469.28;5004113;28;20629;-55
2022/03/21 01:51:30;;;;;;;39.03;11.93;;;;;;;3.27;79.22;99464.19;4997801;28;20245;-55
2022/03/21 01:56:42;;;;;;;42.97;10.82;;;;;;;2.76;79.67;99460.09;4997483;28;20359;-57
2022/03/21 01:59:08;;;;;;;36.42;11.57;;;;;;;2.83;76.69;99451.59;4998698;28;20021;-55
2022/03/21 02:01:34;;;;;;;48.60;12.90;;;;;;;2.83;75.93;99455.88;5000953;28;20069;-55
2022/03/21 02:03:59;;;;;;;43.65;12.27;;;;;;;2.87;76.17;99458.53;5000321;28;20380;-56
2022/03/21 02:06:28;;;;;;;46.15;12.13;;;;;;;2.98;76.58;99463.81;5002069;28;20034;-57
2022/03/21 02:08:55;;;;;;;42.42;11.75;;;;;;;2.89;75.89;99469.72;5004342;28;20033;-57
2022/03/21 02:11:20;;;;;;;34.45;10.27;;;;;;;2.85;81.52;99464.53;4997524;28;20038;-57
2022/03/21 02:13:46;;;;;;;49.05;12.73;;;;;;;3.02;78.87;99455.28;4998092;28;20057;-57
2022/03/21 02:16:11;;;;;;;47.33;11.98;;;;;;;2.84;74.00;99458.47;5000605;28;20045;-55
2022/03/21 02:18:40;;;;;;;43.10;12.07;;;;;;;2.77;74.91;99460.97;5000794;28;20075;-55
2022/03/21 02:21:12;;;;;;;51.67;12.45;;;;;;;2.86;73.64;99461.94;5001079;28;20045;-55
2022/03/21 02:23:46;;;;;;;41.85;11.02;;;;;;;2.65;73.55;99459.94;5000378;28;20108;-56
2022/03/21 02:26:12;;;;;;;41.80;12.18;;;;;;;2.47;73.19;99457.97;5000523;28;20067;-57
2022/03/21 02:28:39;;;;;;;40.45;11.52;;;;;;;2.62;73.05;99457.31;4999055;28;20057;-55
2022/03/21 02:31:05;;;;;;;51.95;11.70;;;;;;;2.57;73.77;99452.94;5001989;28;20033;-55
2022/03/21 02:33:30;;;;;;;43.55;11.63;;;;;;;2.44;73.31;99457.91;5001795;28;20032;-56
2022/03/21 02:35:57;;;;;;;41.45;10.90;;;;;;;2.50;73.48;99458.00;4998348;28;20038;-56
2022/03/21 02:38:24;;;;;;;41.75;11.15;;;;;;;2.41;72.69;99452.72;5007379;28;20088;-56
2022/03/21 02:40:49;;;;;;;43.92;11.30;;;;;;;2.48;74.75;99458.81;5004340;28;20048;-57
2022/03/21 02:43:15;;;;;;;44.05;10.93;;;;;;;2.57;73.78;99455.53;5004317;28;20021;-56
2022/03/21 02:45:41;;;;;;;42.33;10.75;;;;;;;2.41;73.84;99460.44;5005706;28;20095;-55
2022/03/21 02:48:06;;;;;;;39.13;10.85;;;;;;;2.47;73.25;99457.97;5007711;28;20608;-55
2022/03/21 02:50:34;;;;;;;42.30;11.60;;;;;;;2.37;72.45;99461.25;5002910;28;20424;-54
2022/03/21 02:53:02;;;;;;;41.67;11.70;;;;;;;2.11;73.86;99461.72;5004621;28;20034;-56
2022/03/21 02:55:27;;;;;;;37.72;11.07;;;;;;;2.48;75.19;99462.28;5005408;28;20045;-55
2022/03/21 02:57:52;;;;;;;39.67;10.98;;;;;;;2.22;74.32;99461.00;5002697;28;20557;-56
2022/03/21 03:00:18;;;;;;;39.42;10.70;;;;;;;2.01;74.24;99459.81;5001959;28;20675;-55
2022/03/21 03:02:43;;;;;;;63.03;12.82;;;;;;;2.05;74.33;99461.59;5002392;28;20047;-54
2022/03/21 03:05:08;;;;;;;46.17;11.68;;;;;;;2.04;73.73;99462.44;5003541;28;20117;-55
2022/03/21 03:07:34;;;;;;;39.58;10.95;;;;;;;2.04;73.81;99457.28;5005356;28;20107;-55
2022/03/21 03:10:00;;;;;;;35.55;10.63;;;;;;;2.00;74.26;99468.34;5004277;28;20028;-55
2022/03/21 03:12:25;;;;;;;42.83;10.93;;;;;;;1.97;74.32;99468.31;5003513;28;20041;-55
2022/03/21 03:14:51;;;;;;;61.13;12.27;;;;;;;2.10;73.20;99467.69;5003532;28;20041;-55
2022/03/21 03:17:16;;;;;;;54.15;12.00;;;;;;;1.98;73.47;99467.47;5004982;28;20100;-55
2022/03/21 03:19:41;;;;;;;36.55;10.50;;;;;;;1.80;73.98;99477.44;5008764;28;21044;-55
2022/03/21 03:22:08;;;;;;;39.85;10.15;;;;;;;1.95;74.00;99476.84;5006030;28;20129;-55
2022/03/21 03:24:33;;;;;;;47.45;11.10;;;;;;;1.94;73.23;99481.13;5005277;28;20498;-54
2022/03/21 03:26:59;;;;;;;42.58;10.93;;;;;;;1.82;76.65;99480.91;5005035;28;20038;-57
2022/03/21 03:29:24;;;;;;;41.10;10.43;;;;;;;2.11;86.52;99484.88;5000632;28;20545;-56
2022/03/21 03:31:49;;;;;;;40.78;10.77;;;;;;;1.98;81.07;99489.78;5001233;28;20669;-53
2022/03/21 03:34:15;;;;;;;41.10;11.27;;;;;;;2.18;79.78;99487.53;5003495;28;20026;-56
2022/03/21 03:36:40;;;;;;;37.60;10.10;;;;;;;2.22;100.00;99484.16;5001439;28;20037;-56
2022/03/21 03:39:06;;;;;;;38.35;10.07;;;;;;;2.08;100.00;99479.66;5000826;28;20057;-55
2022/03/21 03:41:31;;;;;;;45.03;11.13;;;;;;;2.04;100.00;99487.28;4995906;28;20038;-55
2022/03/21 03:43:57;;;;;;;35.67;10.38;;;;;;;2.34;100.00;99479.22;4998108;28;20873;-55
2022/03/21 03:46:22;;;;;;;40.67;10.98;;;;;;;2.29;100.00;99488.56;4995135;28;20053;-56
2022/03/21 03:48:48;;;;;;;36.50;10.38;;;;;;;2.17;100.00;99481.53;4999402;28;20022;-58
2022/03/21 03:51:13;;;;;;;43.08;11.73;;;;;;;2.16;99.91;99484.94;5003897;28;20045;-55
2022/03/21 03:53:40;;;;;;;43.92;12.77;;;;;;;1.86;100.00;99493.00;5000157;28;20037;-56
2022/03/21 03:56:08;;;;;;;38.08;10.20;;;;;;;1.74;100.00;99489.34;5004878;28;20132;-56
2022/03/21 03:58:37;;;;;;;39.78;11.05;;;;;;;1.77;100.00;99488.56;5004107;28;20025;-56
2022/03/21 04:01:04;;;;;;;39.65;11.23;;;;;;;1.48;100.00;99495.72;5000375;28;20181;-54
2022/03/21 04:03:46;;;;;;;38.70;10.63;;;;;;;1.87;100.00;99494.72;5001451;28;20113;-57
2022/03/21 04:06:15;;;;;;;38.73;11.53;;;;;;;1.65;100.00;99493.47;5001681;28;20048;-55
2022/03/21 04:08:41;;;;;;;40.83;10.50;;;;;;;1.54;100.00;99482.97;5004401;28;20029;-55
2022/03/21 04:11:06;;;;;;;37.55;10.85;;;;;;;1.68;100.00;99491.81;5004299;28;20040;-55
2022/03/21 04:13:32;;;;;;;39.22;11.60;;;;;;;1.57;100.00;99493.31;5003000;28;20029;-54
2022/03/21 04:15:57;;;;;;;35.75;10.52;;;;;;;1.45;97.52;99495.66;5001447;28;20045;-56
2022/03/21 04:18:23;;;;;;;36.17;11.02;;;;;;;1.46;96.65;99489.69;5002948;28;20034;-55
2022/03/21 04:20:50;;;;;;;37.42;10.68;;;;;;;1.48;100.00;99490.59;5000930;28;20060;-54
2022/03/21 04:23:17;;;;;;;31.42;10.48;;;;;;;1.39;100.00;99500.69;5005784;28;20127;-56
2022/03/21 04:25:42;;;;;;;38.15;11.38;;;;;;;1.30;95.67;99502.22;5002769;28;20033;-54
2022/03/21 04:28:09;;;;;;;41.22;11.32;;;;;;;1.24;97.00;99501.25;5002169;28;20026;-56
2022/03/21 04:30:36;;;;;;;34.00;10.68;;;;;;;1.04;98.21;99499.13;5004032;28;20034;-56
2022/03/21 04:33:02;;;;;;;45.45;11.27;;;;;;;0.88;98.77;99507.31;4999536;28;20030;-55
2022/03/21 04:35:27;;;;;;;40.22;11.18;;;;;;;0.98;100.00;99505.84;5003410;28;20049;-54
2022/03/21 04:37:54;;;;;;;37.33;10.57;;;;;;;0.92;96.76;99510.00;5005511;28;20030;-56
2022/03/21 04:40:19;;;;;;;36.95;10.52;;;;;;;1.34;94.92;99509.19;4996626;28;20022;-55
2022/03/21 04:42:44;;;;;;;35.83;10.52;;;;;;;1.20;94.91;99515.75;4999053;28;20117;-55
2022/03/21 04:45:10;;;;;;;34.58;9.95;;;;;;;1.31;100.00;99518.53;5002148;28;20021;-55
2022/03/21 04:47:35;;;;;;;35.28;10.27;;;;;;;1.40;100.00;99507.53;5001099;28;20048;-55
2022/03/21 04:50:00;;;;;;;32.85;10.05;;;;;;;1.24;100.00;99522.66;5000937;28;20057;-57
2022/03/21 04:52:26;;;;;;;39.92;11.48;;;;;;;1.00;100.00;99524.72;5001065;28;20117;-55
2022/03/21 04:54:51;;;;;;;49.30;11.70;;;;;;;1.08;98.94;99521.47;5003020;28;20048;-54
2022/03/21 04:57:23;;;;;;;46.70;11.27;;;;;;;1.09;100.00;99522.34;5001972;28;20050;-55
2022/03/21 04:59:49;;;;;;;38.45;10.77;;;;;;;1.02;96.90;99530.78;5002441;28;20030;-55
2022/03/21 05:02:14;;;;;;;35.33;10.48;;;;;;;1.10;100.00;99521.50;5002002;28;20067;-56
2022/03/21 05:04:40;;;;;;;34.05;9.98;;;;;;;0.86;94.55;99529.56;5001784;28;20089;-54
2022/03/21 05:07:06;;;;;;;43.38;11.05;;;;;;;0.91;93.53;99533.94;5002255;28;20030;-55
2022/03/21 05:09:31;;;;;;;31.58;9.55;;;;;;;1.05;100.00;99531.69;5004308;28;20033;-54
2022/03/21 05:11:57;;;;;;;36.65;10.40;;;;;;;1.07;94.41;99531.75;5002655;28;20124;-55
2022/03/21 05:14:22;;;;;;;41.50;10.95;;;;;;;0.91;91.15;99533.09;5004189;28;20028;-55
2022/03/21 05:16:48;;;;;;;32.22;10.00;;;;;;;0.58;94.16;99534.91;5003270;28;20826;-54
2022/03/21 05:19:14;;;;;;;38.25;11.30;;;;;;;0.82;94.46;99527.75;5002439;28;20117;-55
2022/03/21 05:21:40;;;;;;;36.15;10.25;;;;;;;0.82;95.48;99533.75;4997429;28;20046;-55
2022/03/21 05:32:17;;;;;;;42.70;10.80;;;;;;;0.92;92.12;99533.13;5003292;28;20176;-54
2022/03/21 05:37:27;;;;;;;33.17;8.27;;;;;;;1.19;93.12;99539.69;5002494;28;20122;-56
2022/03/21 05:42:36;;;;;;;42.95;10.80;;;;;;;2.01;82.23;99539.59;5000053;28;20037;-55
2022/03/21 05:45:01;;;;;;;34.25;10.10;;;;;;;1.66;83.17;99544.94;4999124;28;20030;-56
2022/03/21 05:47:26;;;;;;;36.35;10.57;;;;;;;2.52;76.94;99537.91;5002746;28;20073;-55
2022/03/21 05:49:52;;;;;;;33.83;10.30;;;;;;;2.79;73.72;99537.44;5002062;28;20081;-54
2022/03/21 05:52:17;;;;;;;31.98;9.73;;;;;;;3.35;72.68;99540.81;5002059;28;20801;-56
2022/03/21 05:54:43;;;;;;;57.60;11.95;;;;;;;3.49;68.27;99544.41;5000288;28;20030;-56
2022/03/21 05:57:08;;;;;;;40.63;10.52;;;;;;;3.05;70.28;99545.56;4999083;28;20037;-56
2022/03/21 06:02:17;;;;;;;38.35;10.52;;;;;;;3.52;67.30;99547.03;5002401;28;20727;-54
2022/03/21 06:04:42;;;;;;;45.22;11.63;;;;;;;3.91;64.57;99548.31;5000164;28;20778;-55
2022/03/21 06:07:10;;;;;;;33.35;10.27;;;;;;;4.59;63.84;99546.38;4997799;28;20038;-56
2022/03/21 06:09:36;;;;;;;33.47;10.18;;;;;;;3.91;61.05;99547.47;5000866;28;20022;-54
2022/03/21 06:12:01;;;;;;;36.10;10.60;;;;;;;4.01;62.64;99550.16;5005866;28;20047;-55
2022/03/21 06:14:26;;;;;;;29.45;10.63;;;;;;;3.95;62.56;99547.53;5009361;28;20505;-54
2022/03/21 06:16:51;;;;;;;34.60;11.00;;;;;;;5.00;59.14;99548.41;5003997;28;20050;-55
2022/03/21 06:19:18;;;;;;;38.00;11.43;;;;;;;5.55;57.43;99559.03;5006141;28;20846;-56
2022/03/21 06:21:43;;;;;;;33.70;10.60;;;;;;;6.37;54.11;99556.69;5004772;28;20046;-55
2022/03/21 06:24:12;;;;;;;35.63;11.07;;;;;;;7.10;53.42;99555.78;5008363;28;20025;-57
2022/03/21 06:26:38;;;;;;;36.90;11.25;;;;;;;6.95;52.45;99561.00;5004103;28;20029;-55
2022/03/21 06:29:04;;;;;;;34.42;10.35;;;;;;;6.84;50.61;99554.97;5007899;28;20032;-56
2022/03/21 06:31:29;;;;;;;38.20;11.38;;;;;;;6.73;50.77;99571.38;5005049;28;20153;-54
2022/03/21 06:33:54;;;;;;;35.13;11.07;;;;;;;6.57;51.32;99570.50;5006529;28;20025;-54
2022/03/21 06:36:20;;;;;;;36.20;11.70;;;;;;;6.01;52.25;99570.44;5004661;28;20049;-56
2022/03/21 06:38:45;;;;;;;33.35;11.15;;;;;;;8.20;48.06;99581.31;5003687;28;20060;-55
2022/03/21 06:41:10;;;;;;;32.15;10.93;;;;;;;9.43;45.29;99568.13;5004648;28;20044;-55
2022/03/21 06:43:36;;;;;;;35.80;10.63;;;;;;;8.16;46.65;99572.69;5005983;28;20013;-56
2022/03/21 06:46:01;;;;;;;31.20;10.98;;;;;;;7.42;47.15;99572.97;5001165;28;20044;-55
2022/03/21 06:48:27;;;;;;;34.50;10.95;;;;;;;8.64;46.19;99570.63;4997159;28;20354;-56
2022/03/21 06:50:55;;;;;;;30.67;10.95;;;;;;;8.37;44.33;99583.81;5003287;28;20132;-56
2022/03/21 06:53:21;;;;;;;33.00;11.18;;;;;;;9.31;43.66;99585.63;5007877;28;20774;-56
2022/03/21 06:55:46;;;;;;;29.48;10.70;;;;;;;8.52;43.21;99575.06;4997850;28;20038;-58
2022/03/21 06:58:13;;;;;;;27.20;10.23;;;;;;;11.19;40.36;99576.00;5005139;28;20037;-55
2022/03/21 07:00:43;;;;;;;32.28;11.23;;;;;;;11.93;39.41;99574.59;5003039;28;20038;-55
2022/03/21 07:03:09;;;;;;;33.13;11.00;;;;;;;10.33;40.66;99582.63;4998490;28;20456;-58
2022/03/21 07:05:36;;;;;;;28.65;10.75;;;;;;;10.14;39.95;99577.66;4998896;28;20030;-54
2022/03/21 07:08:02;;;;;;;30.10;11.73;;;;;;;12.21;37.79;99581.84;4999117;28;20109;-57
2022/03/21 07:10:28;;;;;;;30.73;11.35;;;;;;;11.66;38.16;99584.69;5003895;28;20040;-56
2022/03/21 07:12:53;;;;;;;29.05;10.88;;;;;;;11.37;38.43;99580.03;5005284;28;20030;-56
2022/03/21 07:15:19;;;;;;;23.70;10.65;;;;;;;12.85;36.20;99588.16;5003026;28;20120;-55
2022/03/21 07:17:44;;;;;;;25.98;10.30;;;;;;;12.69;36.25;99589.44;5001915;28;20369;-54
2022/03/21 07:20:13;;;;;;;26.55;10.95;;;;;;;12.61;36.44;99583.50;5004175;28;20024;-55
2022/03/21 07:22:39;;;;;;;26.52;10.45;;;;;;;13.49;35.34;99582.16;5005956;28;20076;-56
2022/03/21 07:25:06;;;;;;;23.98;10.38;;;;;;;13.26;35.44;99591.47;5005983;28;20400;-56
2022/03/21 07:27:32;;;;;;;27.10;10.30;;;;;;;14.68;32.70;99584.75;5002572;28;20065;-56
2022/03/21 07:29:57;;;;;;;28.55;11.20;;;;;;;13.33;34.36;99588.75;5001110;28;20064;-56
2022/03/21 07:32:23;;;;;;;25.13;9.90;;;;;;;14.80;32.93;99589.59;5003271;28;20124;-56
2022/03/21 07:34:48;;;;;;;34.75;10.90;;;;;;;10.88;36.96;99602.66;5004019;28;20018;-55
2022/03/21 07:37:13;;;;;;;23.70;10.57;;;;;;;13.46;34.23;99600.59;4999827;28;20042;-56
2022/03/21 07:39:39;;;;;;;27.02;11.50;;;;;;;13.75;34.01;99597.16;5000626;28;20018;-56
2022/03/21 07:42:07;;;;;;;24.50;10.50;;;;;;;13.75;34.15;99602.41;5003417;28;20149;-56
2022/03/21 07:47:18;;;;;;;25.90;10.73;;;;;;;13.88;34.27;99597.69;5003654;28;20129;-56
2022/03/21 07:49:53;;;;;;;24.60;10.57;;;;;;;16.86;30.81;99601.41;5003809;28;20113;-55
2022/03/21 07:52:20;;;;;;;27.02;10.93;;;;;;;15.21;32.49;99605.75;5004246;28;20030;-57
2022/03/21 07:54:47;;;;;;;24.75;10.25;;;;;;;16.07;30.89;99606.22;5003660;28;20072;-56
2022/03/21 07:57:12;;;;;;;24.95;10.48;;;;;;;14.46;32.25;99609.06;5003292;28;20099;-56
2022/03/21 07:59:38;;;;;;;24.42;10.60;;;;;;;15.84;30.83;99610.56;5005176;28;20029;-55
2022/03/21 08:02:05;;;;;;;25.25;10.52;;;;;;;15.28;31.78;99613.44;5003184;28;20040;-56
2022/03/21 08:04:31;;;;;;;21.52;9.77;;;;;;;18.40;28.74;99610.47;5001176;28;20045;-57
2022/03/21 08:06:58;;;;;;;19.52;9.52;;;;;;;14.26;31.57;99614.03;5001073;28;20068;-57
2022/03/21 08:09:24;;;;;;;23.13;9.95;;;;;;;15.63;31.50;99617.44;5005666;28;20029;-56
2022/03/21 08:11:50;;;;;;;22.40;10.20;;;;;;;16.52;30.22;99615.88;5002574;28;20045;-57
2022/03/21 08:14:15;;;;;;;20.63;10.30;;;;;;;17.48;29.29;99615.47;5002095;28;20026;-57
2022/03/21 08:16:40;;;;;;;18.73;9.60;;;;;;;15.60;30.73;99612.28;5000335;28;20049;-56
2022/03/21 08:19:06;;;;;;;23.35;10.13;;;;;;;20.21;26.87;99614.44;5003383;28;20032;-55
2022/03/21 08:21:32;;;;;;;18.13;9.63;;;;;;;17.42;29.25;99611.28;4998877;28;20049;-58
2022/03/21 08:23:57;;;;;;;21.08;9.93;;;;;;;15.91;29.55;99617.31;5004514;28;20026;-58
2022/03/21 08:26:23;;;;;;;21.58;10.13;;;;;;;15.71;30.62;99610.13;5002017;28;20421;-56
2022/03/21 08:28:48;;;;;;;23.80;10.40;;;;;;;17.65;29.45;99612.09;5001789;28;20079;-56
2022/03/21 08:31:14;;;;;;;23.08;10.27;;;;;;;16.89;29.26;99606.53;5002387;28;20042;-57
2022/03/21 08:33:40;;;;;;;20.35;9.60;;;;;;;17.25;29.51;99609.41;4997184;28;20082;-57
2022/03/21 08:36:06;;;;;;;22.23;10.35;;;;;;;18.19;28.47;99602.59;4999139;28;20503;-59
2022/03/21 08:38:31;;;;;;;20.20;9.85;;;;;;;17.77;28.37;99605.41;5004557;28;20040;-57
2022/03/21 08:40:58;;;;;;;25.30;10.77;;;;;;;18.29;27.81;99601.25;4999524;28;20034;-55
2022/03/21 08:43:24;;;;;;;20.63;10.35;;;;;;;17.43;28.26;99605.13;5000985;28;20511;-56
2022/03/21 08:45:49;;;;;;;20.77;10.40;;;;;;;17.04;30.78;99607.66;5001113;28;20495;-57
2022/03/21 08:48:15;;;;;;;22.15;10.02;;;;;;;19.88;26.69;99603.06;5005284;28;20476;-58
2022/03/21 08:50:40;;;;;;;20.42;9.30;;;;;;;17.72;28.34;99598.56;5000683;28;20140;-57
2022/03/21 08:53:07;;;;;;;21.23;10.00;;;;;;;14.68;30.99;99600.50;5002098;28;20060;-56
2022/03/21 08:55:32;;;;;;;21.63;10.18;;;;;;;16.51;29.67;99603.66;5000777;28;20042;-58
2022/03/21 08:57:57;;;;;;;21.98;10.10;;;;;;;16.12;30.09;99599.00;5005252;28;20455;-57
2022/03/21 09:00:23;;;;;;;19.88;9.73;;;;;;;17.52;29.58;99588.88;5005015;28;20734;-57
2022/03/21 09:02:49;;;;;;;21.20;9.98;;;;;;;16.99;30.23;99592.06;5005829;28;20030;-58
2022/03/21 09:05:15;;;;;;;20.90;10.07;;;;;;;16.83;28.80;99586.53;5002739;28;20029;-58
2022/03/21 09:07:41;;;;;;;20.55;9.95;;;;;;;15.42;31.14;99579.63;5001122;28;20026;-58
2022/03/21 09:10:07;;;;;;;19.02;10.00;;;;;;;14.20;32.10;99587.97;5002373;28;20030;-56
2022/03/21 09:12:33;;;;;;;24.13;10.05;;;;;;;14.55;32.54;99578.16;5001773;28;20071;-57
2022/03/21 09:14:59;;;;;;;26.30;10.10;;;;;;;15.64;31.43;99571.81;5001869;28;20112;-58
2022/03/21 09:17:25;;;;;;;25.48;10.10;;;;;;;16.11;30.81;99578.88;5001382;28;20045;-57
2022/03/21 09:19:50;;;;;;;25.20;10.07;;;;;;;15.19;30.92;99576.03;5002611;28;20484;-56
2022/03/21 09:22:16;;;;;;;23.85;10.25;;;;;;;17.26;29.61;99568.94;5003141;28;20041;-56
2022/03/21 09:24:41;;;;;;;22.08;9.80;;;;;;;15.25;31.23;99569.69;4996425;28;20030;-57
2022/03/21 09:27:07;;;;;;;21.67;9.65;;;;;;;15.79;30.17;99571.28;5000942;28;20088;-58
2022/03/21 09:29:32;;;;;;;24.48;9.40;;;;;;;18.46;25.62;99565.25;4999000;28;20064;-57
2022/03/21 09:31:58;;;;;;;22.80;9.65;;;;;;;16.07;28.00;99570.22;5001191;28;20087;-55
2022/03/21 09:34:24;;;;;;;26.23;10.48;;;;;;;18.95;27.98;99564.63;5005391;28;20026;-56
2022/03/21 09:36:50;;;;;;;29.52;11.07;;;;;;;16.55;29.66;99565.72;5001291;28;20075;-56
2022/03/21 09:39:17;;;;;;;25.17;10.00;;;;;;;17.67;28.64;99573.28;5001757;28;20029;-57
2022/03/21 09:41:44;;;;;;;25.05;9.85;;;;;;;16.27;28.21;99572.09;5000254;28;20044;-57
2022/03/21 09:44:10;;;;;;;24.20;9.35;;;;;;;20.50;25.06;99563.44;5002486;28;20083;-58
2022/03/21 09:46:39;;;;;;;20.27;9.50;;;;;;;16.66;27.90;99566.13;5004186;28;20046;-58
2022/03/21 09:49:07;;;;;;;20.67;9.20;;;;;;;17.92;28.21;99568.66;5004307;28;20026;-57
2022/03/21 09:51:32;;;;;;;18.52;8.80;;;;;;;17.81;27.39;99568.25;5005186;28;20042;-58
2022/03/21 09:53:59;;;;;;;18.50;8.98;;;;;;;18.53;26.19;99563.13;5008906;28;20033;-57
2022/03/21 09:56:26;;;;;;;20.02;9.15;;;;;;;17.85;25.88;99559.28;5002691;28;20104;-56
2022/03/21 09:58:59;;;;;;;21.90;8.50;;;;;;;18.56;26.97;99557.72;5003743;28;20152;-57
2022/03/21 10:01:25;;;;;;;20.65;9.20;;;;;;;17.62;27.20;99567.38;5005383;28;20677;-56
2022/03/21 10:03:50;;;;;;;24.20;10.18;;;;;;;16.11;29.38;99570.97;5006145;28;20025;-56
2022/03/21 10:06:40;;;;;;;20.35;9.82;;;;;;;16.10;29.47;99570.13;5005951;28;20099;-56
2022/03/21 10:09:16;;;;;;;23.77;9.25;;;;;;;16.71;30.00;99572.09;5007564;28;20077;-56
2022/03/21 10:12:11;;;;;;;26.27;9.70;;;;;;;17.13;28.46;99565.97;5002016;28;20084;-56
2022/03/21 10:14:37;;;;;;;22.70;9.60;;;;;;;17.13;27.43;99558.06;5006130;28;20036;-56
2022/03/21 10:17:11;;;;;;;22.50;9.32;;;;;;;16.86;27.72;99559.22;5005503;28;20030;-56
2022/03/21 10:19:45;;;;;;;22.13;9.30;;;;;;;16.18;28.09;99565.41;5006918;28;20033;-55
2022/03/21 10:22:14;;;;;;;25.33;9.02;;;;;;;16.24;27.88;99566.94;5003315;28;20041;-55
2022/03/21 10:24:44;;;;;;;21.98;9.35;;;;;;;15.96;28.22;99560.13;5006468;28;20084;-57
2022/03/21 10:27:46;;;;;;;22.65;9.07;;;;;;;17.40;29.60;99549.84;5004853;28;20099;-57
2022/03/21 10:30:15;;;;;;;20.05;8.80;;;;;;;15.94;28.54;99558.47;4967061;28;20984;-57
2022/03/21 10:32:46;;;;;;;24.50;9.30;;;;;;;17.81;27.66;99544.50;4996514;28;20033;-57
2022/03/21 10:35:14;;;;;;;25.80;9.32;;;;;;;17.49;27.79;99552.06;5001210;28;20030;-56
2022/03/21 10:37:46;;;;;;;21.88;9.23;;;;;;;17.41;27.97;99556.84;5007757;28;20026;-55
2022/03/21 10:40:19;;;;;;;20.40;8.88;;;;;;;16.75;31.78;99547.31;5001748;28;20032;-55
2022/03/21 10:42:50;;;;;;;19.70;8.93;;;;;;;18.52;26.56;99541.16;5005275;28;20760;-56
2022/03/21 10:45:15;;;;;;;21.48;8.95;;;;;;;16.11;28.71;99547.28;5006308;28;20038;-57
2022/03/21 10:47:52;;;;;;;19.00;8.05;;;;;;;18.12;29.25;99535.16;5005771;28;20072;-57
2022/03/21 10:50:35;;;;;;;19.05;9.18;;;;;;;16.69;28.92;99531.78;5001771;28;20534;-58
2022/03/21 10:53:06;;;;;;;25.60;9.70;;;;;;;17.20;28.02;99531.41;5002496;28;20949;-56
2022/03/21 10:55:31;;;;;;;20.10;9.15;;;;;;;16.69;28.87;99537.03;5001666;28;20728;-56
2022/03/21 10:57:57;;;;;;;21.05;9.40;;;;;;;15.64;29.17;99536.75;4998301;28;20129;-56
2022/03/21 11:00:26;;;;;;;22.50;9.43;;;;;;;16.33;29.48;99523.59;5000193;28;20030;-56
2022/03/21 11:03:14;;;;;;;19.25;9.32;;;;;;;17.34;27.92;99526.38;5005302;28;20168;-57
2022/03/21 11:05:48;;;;;;;25.48;9.15;;;;;;;16.34;28.22;99526.16;5006041;28;20033;-57
2022/03/21 11:08:17;;;;;;;22.05;9.48;;;;;;;17.49;27.50;99517.78;5003126;28;20037;-58
2022/03/21 11:10:44;;;;;;;21.55;9.40;;;;;;;16.51;28.90;99511.47;5000256;28;20396;-57
2022/03/21 11:13:11;;;;;;;23.70;9.60;;;;;;;16.94;27.79;99515.78;5006617;28;20507;-56
2022/03/21 11:15:38;;;;;;;21.30;9.23;;;;;;;15.74;29.30;99514.50;5001054;28;20038;-56
2022/03/21 11:18:04;;;;;;;22.77;8.88;;;;;;;17.29;27.55;99509.91;5001143;28;20080;-57
2022/03/21 11:20:31;;;;;;;26.52;10.02;;;;;;;18.02;27.64;99505.69;5003252;28;20061;-57
2022/03/21 11:22:57;;;;;;;26.42;9.60;;;;;;;17.15;27.61;99503.47;5002059;28;20092;-58
2022/03/21 11:25:27;;;;;;;22.60;8.90;;;;;;;19.18;26.51;99502.63;5006287;28;20028;-57
2022/03/21 11:28:04;;;;;;;24.90;9.60;;;;;;;16.22;28.46;99504.75;5006478;28;20056;-57
2022/03/21 11:30:48;;;;;;;22.42;9.32;;;;;;;16.08;28.50;99507.91;5003964;28;20061;-55
2022/03/21 11:33:36;;;;;;;20.30;8.38;;;;;;;16.13;28.81;99505.97;5000532;28;20057;-57
2022/03/21 11:36:05;;;;;;;24.20;9.82;;;;;;;16.15;29.08;99504.97;4995195;28;20476;-56
2022/03/21 11:38:35;;;;;;;25.50;10.02;;;;;;;15.43;29.21;99508.56;5002962;28;20033;-56
2022/03/21 11:41:26;;;;;;;25.38;9.80;;;;;;;16.42;29.30;99496.03;5004644;28;20037;-56
2022/03/21 11:44:03;;;;;;;25.00;9.70;;;;;;;15.92;29.07;99498.00;5005172;28;20781;-57
2022/03/21 11:46:31;;;;;;;24.50;9.35;;;;;;;15.46;29.87;99489.19;4996733;28;20038;-57